sensor_id;sensor_type;location;lat;lon;timestamp;pressure;altitude;pressure_sealevel;temperature;humidity
8717;BME280;4395;48.554;8.820;2023-11-21T00:00:21;95297.84;;;7.30;82.09
8717;BME280;4395;48.554;8.820;2023-11-21T00:02:24;95296.81;;;7.31;82.13
8717;BME280;4395;48.554;8.820;2023-11-21T00:04:26;95296.81;;;7.31;82.25
8717;BME280;4395;48.554;8.820;2023-11-21T00:06:29;95298.91;;;7.34;82.22
8717;BME280;4395;48.554;8.820;2023-11-21T00:08:34;95292.72;;;7.35;82.21
8717;BME280;4395;48.554;8.820;2023-11-21T00:10:38;95301.00;;;7.37;82.22
8717;BME280;4395;48.554;8.820;2023-11-21T00:12:41;95289.59;;;7.38;82.25
8717;BME280;4395;48.554;8.820;2023-11-21T00:14:44;95300.50;;;7.40;82.02
8717;BME280;4395;48.554;8.820;2023-11-21T00:16:48;95293.28;;;7.42;82.10
8717;BME280;4395;48.554;8.820;2023-11-21T00:18:51;95297.97;;;7.45;81.82
8717;BME280;4395;48.554;8.820;2023-11-21T00:20:54;95301.09;;;7.47;81.88
8717;BME280;4395;48.554;8.820;2023-11-21T00:23:00;95297.19;;;7.44;82.10
8717;BME280;4395;48.554;8.820;2023-11-21T00:25:06;95299.56;;;7.51;81.77
8717;BME280;4395;48.554;8.820;2023-11-21T00:27:10;95308.88;;;7.52;81.60
8717;BME280;4395;48.554;8.820;2023-11-21T00:29:13;95301.66;;;7.54;81.59
8717;BME280;4395;48.554;8.820;2023-11-21T00:31:19;95303.22;;;7.55;81.54
8717;BME280;4395;48.554;8.820;2023-11-21T00:33:22;95300.38;;;7.56;81.51
8717;BME280;4395;48.554;8.820;2023-11-21T00:35:25;95305.56;;;7.56;81.68
8717;BME280;4395;48.554;8.820;2023-11-21T00:37:28;95300.69;;;7.60;81.60
8717;BME280;4395;48.554;8.820;2023-11-21T00:39:33;95304.81;;;7.61;81.38
8717;BME280;4395;48.554;8.820;2023-11-21T00:41:38;95300.16;;;7.63;81.56
8717;BME280;4395;48.554;8.820;2023-11-21T00:43:41;95301.72;;;7.64;81.20
8717;BME280;4395;48.554;8.820;2023-11-21T00:45:46;95306.38;;;7.62;81.18
8717;BME280;4395;48.554;8.820;2023-11-21T00:47:50;95302.22;;;7.61;80.72
8717;BME280;4395;48.554;8.820;2023-11-21T00:49:53;95303.22;;;7.55;80.73
8717;BME280;4395;48.554;8.820;2023-11-21T00:51:56;95299.59;;;7.56;81.00
8717;BME280;4395;48.554;8.820;2023-11-21T00:54:00;95299.84;;;7.54;80.69
8717;BME280;4395;48.554;8.820;2023-11-21T00:56:04;95299.06;;;7.54;80.80
8717;BME280;4395;48.554;8.820;2023-11-21T00:58:08;95302.94;;;7.51;80.85
8717;BME280;4395;48.554;8.820;2023-11-21T01:00:12;95303.44;;;7.48;80.94
8717;BME280;4395;48.554;8.820;2023-11-21T01:02:18;95301.09;;;7.47;81.06
8717;BME280;4395;48.554;8.820;2023-11-21T01:04:21;95305.19;;;7.43;80.96
8717;BME280;4395;48.554;8.820;2023-11-21T01:06:25;95303.63;;;7.42;81.15
8717;BME280;4395;48.554;8.820;2023-11-21T01:08:28;95304.41;;;7.42;80.90
8717;BME280;4395;48.554;8.820;2023-11-21T01:10:31;95304.66;;;7.41;81.09
8717;BME280;4395;48.554;8.820;2023-11-21T01:12:36;95308.28;;;7.40;81.28
8717;BME280;4395;48.554;8.820;2023-11-21T01:14:40;95307.75;;;7.38;80.90
8717;BME280;4395;48.554;8.820;2023-11-21T01:16:43;95309.31;;;7.39;80.92
8717;BME280;4395;48.554;8.820;2023-11-21T01:18:46;95304.91;;;7.39;81.21
8717;BME280;4395;48.554;8.820;2023-11-21T01:20:50;95308.28;;;7.40;81.21
8717;BME280;4395;48.554;8.820;2023-11-21T01:22:54;95309.81;;;7.36;81.25
8717;BME280;4395;48.554;8.820;2023-11-21T01:24:57;95304.91;;;7.39;81.11
8717;BME280;4395;48.554;8.820;2023-11-21T01:27:00;95308.28;;;7.40;81.29
8717;BME280;4395;48.554;8.820;2023-11-21T01:29:03;95302.56;;;7.38;81.17
8717;BME280;4395;48.554;8.820;2023-11-21T01:31:07;95302.06;;;7.36;81.31
8717;BME280;4395;48.554;8.820;2023-11-21T01:33:10;95301.50;;;7.34;81.26
8717;BME280;4395;48.554;8.820;2023-11-21T01:35:12;95295.78;;;7.32;81.07
8717;BME280;4395;48.554;8.820;2023-11-21T01:37:15;95299.66;;;7.29;81.46
8717;BME280;4395;48.554;8.820;2023-11-21T01:39:19;95297.31;;;7.28;81.44
8717;BME280;4395;48.554;8.820;2023-11-21T01:41:25;95302.97;;;7.24;81.53
8717;BME280;4395;48.554;8.820;2023-11-21T01:43:29;95301.44;;;7.23;81.66
8717;BME280;4395;48.554;8.820;2023-11-21T01:45:34;95298.31;;;7.21;81.72
8717;BME280;4395;48.554;8.820;2023-11-21T01:47:38;95299.31;;;7.20;81.84
8717;BME280;4395;48.554;8.820;2023-11-21T01:49:44;95301.91;;;7.20;81.72
8717;BME280;4395;48.554;8.820;2023-11-21T01:51:48;95292.59;;;7.19;82.09
8717;BME280;4395;48.554;8.820;2023-11-21T01:53:52;95295.47;;;7.23;82.02
8717;BME280;4395;48.554;8.820;2023-11-21T01:55:56;95296.75;;;7.20;81.87
8717;BME280;4395;48.554;8.820;2023-11-21T01:58:00;95293.91;;;7.22;82.04
8717;BME280;4395;48.554;8.820;2023-11-21T02:00:05;95299.34;;;7.26;82.09
8717;BME280;4395;48.554;8.820;2023-11-21T02:02:17;95295.19;;;7.24;82.07
8717;BME280;4395;48.554;8.820;2023-11-21T02:04:22;95287.69;;;7.23;81.92
8717;BME280;4395;48.554;8.820;2023-11-21T02:06:24;95292.59;;;7.24;82.19
8717;BME280;4395;48.554;8.820;2023-11-21T02:08:27;95284.84;;;7.24;82.08
8717;BME280;4395;48.554;8.820;2023-11-21T02:10:31;95292.38;;;7.26;82.25
8717;BME280;4395;48.554;8.820;2023-11-21T02:12:34;95280.19;;;7.27;82.06
8717;BME280;4395;48.554;8.820;2023-11-21T02:14:38;95282.00;;;7.26;82.13
8717;BME280;4395;48.554;8.820;2023-11-21T02:16:41;95287.97;;;7.27;82.00
8717;BME280;4395;48.554;8.820;2023-11-21T02:18:49;95286.94;;;7.28;81.93
8717;BME280;4395;48.554;8.820;2023-11-21T02:20:55;95281.78;;;7.28;81.92
8717;BME280;4395;48.554;8.820;2023-11-21T02:22:59;95295.78;;;7.32;82.18
8717;BME280;4395;48.554;8.820;2023-11-21T02:25:03;95287.00;;;7.33;81.68
8717;BME280;4395;48.554;8.820;2023-11-21T02:27:06;95278.94;;;7.29;82.06
8717;BME280;4395;48.554;8.820;2023-11-21T02:29:08;95282.31;;;7.30;81.97
8717;BME280;4395;48.554;8.820;2023-11-21T02:31:14;95283.88;;;7.31;81.80
8717;BME280;4395;48.554;8.820;2023-11-21T02:33:17;95281.53;;;7.29;81.60
8717;BME280;4395;48.554;8.820;2023-11-21T02:35:22;95284.09;;;7.24;81.74
8717;BME280;4395;48.554;8.820;2023-11-21T02:37:25;95282.78;;;7.21;81.71
8717;BME280;4395;48.554;8.820;2023-11-21T02:39:29;95282.00;;;7.21;81.72
8717;BME280;4395;48.554;8.820;2023-11-21T02:41:31;95282.47;;;7.18;81.64
8717;BME280;4395;48.554;8.820;2023-11-21T02:43:34;95279.63;;;7.19;81.97
8717;BME280;4395;48.554;8.820;2023-11-21T02:45:37;95283.00;;;7.20;82.05
8717;BME280;4395;48.554;8.820;2023-11-21T02:47:40;95271.09;;;7.19;81.74
8717;BME280;4395;48.554;8.820;2023-11-21T02:49:43;95274.47;;;7.19;81.74
8717;BME280;4395;48.554;8.820;2023-11-21T02:51:46;95270.84;;;7.20;81.74
8717;BME280;4395;48.554;8.820;2023-11-21T02:53:49;95270.59;;;7.22;81.51
8717;BME280;4395;48.554;8.820;2023-11-21T02:55:54;95273.97;;;7.22;81.48
8717;BME280;4395;48.554;8.820;2023-11-21T02:57:57;95265.19;;;7.23;81.59
8717;BME280;4395;48.554;8.820;2023-11-21T03:00:02;95270.38;;;7.23;81.44
8717;BME280;4395;48.554;8.820;2023-11-21T03:02:08;95271.88;;;7.19;81.29
8717;BME280;4395;48.554;8.820;2023-11-21T03:04:11;95273.69;;;7.19;81.20
8717;BME280;4395;48.554;8.820;2023-11-21T03:06:20;95270.56;;;7.17;81.00
8717;BME280;4395;48.554;8.820;2023-11-21T03:08:23;95278.56;;;7.15;81.07
8717;BME280;4395;48.554;8.820;2023-11-21T03:10:25;95271.56;;;7.11;81.03
8717;BME280;4395;48.554;8.820;2023-11-21T03:12:31;95273.06;;;7.07;81.25
8717;BME280;4395;48.554;8.820;2023-11-21T03:14:33;95273.31;;;7.05;81.45
8717;BME280;4395;48.554;8.820;2023-11-21T03:16:36;95271.97;;;7.03;81.53
8717;BME280;4395;48.554;8.820;2023-11-21T03:18:40;95270.97;;;7.04;81.59
8717;BME280;4395;48.554;8.820;2023-11-21T03:20:43;95276.91;;;7.04;81.52
8717;BME280;4395;48.554;8.820;2023-11-21T03:22:47;95271.19;;;7.02;81.52
8717;BME280;4395;48.554;8.820;2023-11-21T03:24:50;95272.22;;;7.01;81.58
8717;BME280;4395;48.554;8.820;2023-11-21T03:26:52;95276.34;;;6.97;81.66
8717;BME280;4395;48.554;8.820;2023-11-21T03:28:56;95277.13;;;6.98;81.83
8717;BME280;4395;48.554;8.820;2023-11-21T03:30:58;95277.13;;;6.98;82.04
8717;BME280;4395;48.554;8.820;2023-11-21T03:33:01;95276.34;;;6.97;81.91
8717;BME280;4395;48.554;8.820;2023-11-21T03:35:05;95276.88;;;6.99;81.98
8717;BME280;4395;48.554;8.820;2023-11-21T03:37:09;95274.28;;;6.99;81.89
8717;BME280;4395;48.554;8.820;2023-11-21T03:39:12;95274.28;;;6.99;81.83
8717;BME280;4395;48.554;8.820;2023-11-21T03:41:15;95279.97;;;6.96;82.11
8717;BME280;4395;48.554;8.820;2023-11-21T03:43:18;95278.41;;;6.95;82.04
8717;BME280;4395;48.554;8.820;2023-11-21T03:45:22;95277.06;;;6.93;82.17
8717;BME280;4395;48.554;8.820;2023-11-21T03:47:26;95277.31;;;6.91;82.15
8717;BME280;4395;48.554;8.820;2023-11-21T03:49:29;95276.25;;;6.87;82.12
8717;BME280;4395;48.554;8.820;2023-11-21T03:51:32;95279.88;;;6.86;82.29
8717;BME280;4395;48.554;8.820;2023-11-21T03:53:35;95281.16;;;6.88;82.31
8717;BME280;4395;48.554;8.820;2023-11-21T03:55:38;95284.06;;;6.92;82.08
8717;BME280;4395;48.554;8.820;2023-11-21T03:57:41;95282.78;;;6.95;82.38
8717;BME280;4395;48.554;8.820;2023-11-21T03:59:44;95284.06;;;6.92;82.01
8717;BME280;4395;48.554;8.820;2023-11-21T04:01:48;95290.25;;;6.91;82.03
8717;BME280;4395;48.554;8.820;2023-11-21T04:03:51;95280.91;;;6.90;82.20
8717;BME280;4395;48.554;8.820;2023-11-21T04:05:54;95285.63;;;6.93;82.12
8717;BME280;4395;48.554;8.820;2023-11-21T04:07:57;95285.84;;;6.92;82.41
8717;BME280;4395;48.554;8.820;2023-11-21T04:10:00;95285.63;;;6.93;82.71
8717;BME280;4395;48.554;8.820;2023-11-21T04:12:02;95288.75;;;6.95;82.30
8717;BME280;4395;48.554;8.820;2023-11-21T04:14:05;95291.88;;;6.97;82.36
8717;BME280;4395;48.554;8.820;2023-11-21T04:16:08;95292.66;;;6.98;82.24
8717;BME280;4395;48.554;8.820;2023-11-21T04:18:12;95295.50;;;6.96;82.35
8717;BME280;4395;48.554;8.820;2023-11-21T04:20:15;95288.25;;;6.98;82.34
8717;BME280;4395;48.554;8.820;2023-11-21T04:22:20;95292.94;;;7.01;82.48
8717;BME280;4395;48.554;8.820;2023-11-21T04:24:23;95289.84;;;7.04;82.30
8717;BME280;4395;48.554;8.820;2023-11-21T04:26:26;95289.91;;;7.09;82.20
8717;BME280;4395;48.554;8.820;2023-11-21T04:28:29;95289.44;;;7.12;82.20
8717;BME280;4395;48.554;8.820;2023-11-21T04:30:32;95293.06;;;7.16;82.07
8717;BME280;4395;48.554;8.820;2023-11-21T04:32:35;95300.84;;;7.16;82.07
8717;BME280;4395;48.554;8.820;2023-11-21T04:34:39;95293.56;;;7.13;81.98
8717;BME280;4395;48.554;8.820;2023-11-21T04:36:43;95300.84;;;7.16;82.08
8717;BME280;4395;48.554;8.820;2023-11-21T04:38:46;95299.78;;;7.12;81.87
8717;BME280;4395;48.554;8.820;2023-11-21T04:40:48;95304.19;;;7.12;82.21
8717;BME280;4395;48.554;8.820;2023-11-21T04:42:51;95301.84;;;7.10;82.01
8717;BME280;4395;48.554;8.820;2023-11-21T04:44:54;95299.72;;;7.07;82.05
8717;BME280;4395;48.554;8.820;2023-11-21T04:46:56;95302.31;;;7.07;82.18
8717;BME280;4395;48.554;8.820;2023-11-21T04:48:59;95297.13;;;7.07;82.31
8717;BME280;4395;48.554;8.820;2023-11-21T04:51:05;95300.75;;;7.06;82.36
8717;BME280;4395;48.554;8.820;2023-11-21T04:53:08;95301.84;;;7.10;82.44
8717;BME280;4395;48.554;8.820;2023-11-21T04:55:11;95302.31;;;7.07;82.34
8717;BME280;4395;48.554;8.820;2023-11-21T04:57:13;95314.78;;;7.10;82.50
8717;BME280;4395;48.554;8.820;2023-11-21T04:59:19;95302.63;;;7.11;82.57
8717;BME280;4395;48.554;8.820;2023-11-21T05:01:26;95301.84;;;7.10;82.45
8717;BME280;4395;48.554;8.820;2023-11-21T05:03:29;95311.19;;;7.16;82.42
8717;BME280;4395;48.554;8.820;2023-11-21T05:05:32;95306.00;;;7.11;82.32
8717;BME280;4395;48.554;8.820;2023-11-21T05:07:38;95315.31;;;7.12;82.07
8717;BME280;4395;48.554;8.820;2023-11-21T05:09:42;95316.38;;;7.16;82.17
8717;BME280;4395;48.554;8.820;2023-11-21T05:11:45;95327.22;;;7.13;81.99
8717;BME280;4395;48.554;8.820;2023-11-21T05:13:48;95320.50;;;7.12;82.31
8717;BME280;4395;48.554;8.820;2023-11-21T05:15:51;95319.97;;;7.15;82.06
8717;BME280;4395;48.554;8.820;2023-11-21T05:17:54;95319.97;;;7.15;82.13
8717;BME280;4395;48.554;8.820;2023-11-21T05:20:01;95316.13;;;7.18;82.00
8717;BME280;4395;48.554;8.820;2023-11-21T05:22:05;95314.03;;;7.15;82.04
8717;BME280;4395;48.554;8.820;2023-11-21T05:24:11;95321.56;;;7.16;81.94
8717;BME280;4395;48.554;8.820;2023-11-21T05:26:13;95320.75;;;7.16;82.03
8717;BME280;4395;48.554;8.820;2023-11-21T05:28:16;95321.56;;;7.16;81.84
8717;BME280;4395;48.554;8.820;2023-11-21T05:30:20;95327.22;;;7.13;81.93
8717;BME280;4395;48.554;8.820;2023-11-21T05:32:24;95333.44;;;7.12;81.98
8717;BME280;4395;48.554;8.820;2023-11-21T05:34:25;95332.91;;;7.10;81.60
8717;BME280;4395;48.554;8.820;2023-11-21T05:36:28;95331.34;;;7.09;82.25
8717;BME280;4395;48.554;8.820;2023-11-21T05:38:31;95327.41;;;7.07;82.51
8717;BME280;4395;48.554;8.820;2023-11-21T05:40:36;95328.75;;;7.09;82.43
8717;BME280;4395;48.554;8.820;2023-11-21T05:42:39;95336.50;;;7.09;82.32
8717;BME280;4395;48.554;8.820;2023-11-21T05:44:42;95342.94;;;7.07;82.23
8717;BME280;4395;48.554;8.820;2023-11-21T05:46:45;95338.00;;;7.05;82.54
8717;BME280;4395;48.554;8.820;2023-11-21T05:48:48;95341.09;;;7.02;82.51
8717;BME280;4395;48.554;8.820;2023-11-21T05:50:51;95340.31;;;7.02;82.53
8717;BME280;4395;48.554;8.820;2023-11-21T05:52:53;95334.34;;;7.01;82.57
8717;BME280;4395;48.554;8.820;2023-11-21T05:54:56;95336.41;;;6.99;82.55
8717;BME280;4395;48.554;8.820;2023-11-21T05:56:59;95341.06;;;6.97;82.52
8717;BME280;4395;48.554;8.820;2023-11-21T05:59:02;95338.94;;;6.94;82.45
8717;BME280;4395;48.554;8.820;2023-11-21T06:01:06;95340.44;;;6.90;82.28
8717;BME280;4395;48.554;8.820;2023-11-21T06:03:10;95338.38;;;6.87;82.40
8717;BME280;4395;48.554;8.820;2023-11-21T06:05:13;95335.22;;;6.85;82.66
8717;BME280;4395;48.554;8.820;2023-11-21T06:07:15;95338.84;;;6.84;82.67
8717;BME280;4395;48.554;8.820;2023-11-21T06:09:18;95341.19;;;6.85;82.59
8717;BME280;4395;48.554;8.820;2023-11-21T06:11:22;95342.44;;;6.83;82.89
8717;BME280;4395;48.554;8.820;2023-11-21T06:13:27;95337.75;;;6.80;82.60
8717;BME280;4395;48.554;8.820;2023-11-21T06:15:30;95341.31;;;6.74;82.77
8717;BME280;4395;48.554;8.820;2023-11-21T06:17:33;95346.75;;;6.72;82.80
8717;BME280;4395;48.554;8.820;2023-11-21T06:19:38;95342.03;;;6.69;82.92
8717;BME280;4395;48.554;8.820;2023-11-21T06:21:45;95350.03;;;6.68;82.87
8717;BME280;4395;48.554;8.820;2023-11-21T06:23:48;95353.66;;;6.67;82.96
8717;BME280;4395;48.554;8.820;2023-11-21T06:25:54;95343.81;;;6.64;83.19
8717;BME280;4395;48.554;8.820;2023-11-21T06:27:57;95352.59;;;6.63;82.92
8717;BME280;4395;48.554;8.820;2023-11-21T06:30:01;95357.50;;;6.64;83.07
8717;BME280;4395;48.554;8.820;2023-11-21T06:32:04;95362.94;;;6.63;83.04
8717;BME280;4395;48.554;8.820;2023-11-21T06:34:07;95364.50;;;6.64;83.13
8717;BME280;4395;48.554;8.820;2023-11-21T06:36:10;95365.56;;;6.68;82.98
8717;BME280;4395;48.554;8.820;2023-11-21T06:38:14;95365.09;;;6.71;83.06
8717;BME280;4395;48.554;8.820;2023-11-21T06:40:19;95373.41;;;6.73;83.05
8717;BME280;4395;48.554;8.820;2023-11-21T06:42:23;95372.59;;;6.72;82.95
8717;BME280;4395;48.554;8.820;2023-11-21T06:44:26;95374.97;;;6.74;83.00
8717;BME280;4395;48.554;8.820;2023-11-21T06:46:30;95378.38;;;6.79;82.88
8717;BME280;4395;48.554;8.820;2023-11-21T06:48:33;95383.84;;;6.83;82.77
8717;BME280;4395;48.554;8.820;2023-11-21T06:50:36;95391.94;;;6.86;82.63
8717;BME280;4395;48.554;8.820;2023-11-21T06:52:39;95386.22;;;6.84;82.58
8717;BME280;4395;48.554;8.820;2023-11-21T06:54:41;95396.31;;;6.86;82.71
8717;BME280;4395;48.554;8.820;2023-11-21T06:56:44;95399.38;;;6.83;82.73
8717;BME280;4395;48.554;8.820;2023-11-21T06:58:47;95398.13;;;6.85;82.49
8717;BME280;4395;48.554;8.820;2023-11-21T07:00:50;95396.78;;;6.83;82.58
8717;BME280;4395;48.554;8.820;2023-11-21T07:02:58;95407.94;;;6.83;82.53
8717;BME280;4395;48.554;8.820;2023-11-21T07:05:01;95400.47;;;6.87;82.46
8717;BME280;4395;48.554;8.820;2023-11-21T07:07:04;95404.56;;;6.83;82.65
8717;BME280;4395;48.554;8.820;2023-11-21T07:09:08;95406.13;;;6.84;82.41
8717;BME280;4395;48.554;8.820;2023-11-21T07:11:13;95407.63;;;6.80;82.66
8717;BME280;4395;48.554;8.820;2023-11-21T07:13:15;95405.50;;;6.77;82.47
8717;BME280;4395;48.554;8.820;2023-11-21T07:15:18;95409.66;;;6.78;82.83
8717;BME280;4395;48.554;8.820;2023-11-21T07:17:21;95412.25;;;6.78;82.78
8717;BME280;4395;48.554;8.820;2023-11-21T07:19:26;95409.13;;;6.76;82.75
8717;BME280;4395;48.554;8.820;2023-11-21T07:21:29;95410.22;;;6.80;82.69
8717;BME280;4395;48.554;8.820;2023-11-21T07:23:32;95416.63;;;6.77;82.49
8717;BME280;4395;48.554;8.820;2023-11-21T07:25:35;95423.69;;;6.82;82.76
8717;BME280;4395;48.554;8.820;2023-11-21T07:27:38;95427.38;;;6.86;82.63
8717;BME280;4395;48.554;8.820;2023-11-21T07:29:41;95430.25;;;6.90;82.27
8717;BME280;4395;48.554;8.820;2023-11-21T07:31:43;95434.16;;;6.92;82.66
8717;BME280;4395;48.554;8.820;2023-11-21T07:33:47;95436.81;;;6.97;82.33
8717;BME280;4395;48.554;8.820;2023-11-21T07:35:51;95437.88;;;7.01;82.22
8717;BME280;4395;48.554;8.820;2023-11-21T07:37:54;95432.69;;;7.01;81.76
8717;BME280;4395;48.554;8.820;2023-11-21T07:39:57;95436.34;;;7.00;81.68
8717;BME280;4395;48.554;8.820;2023-11-21T07:42:00;95438.94;;;7.00;81.73
8717;BME280;4395;48.554;8.820;2023-11-21T07:44:04;95445.41;;;7.03;81.84
8717;BME280;4395;48.554;8.820;2023-11-21T07:46:08;95450.09;;;7.06;81.77
8717;BME280;4395;48.554;8.820;2023-11-21T07:48:11;95444.16;;;7.05;81.45
8717;BME280;4395;48.554;8.820;2023-11-21T07:50:14;95446.25;;;7.08;81.69
8717;BME280;4395;48.554;8.820;2023-11-21T07:52:18;95445.25;;;7.09;81.56
8717;BME280;4395;48.554;8.820;2023-11-21T07:54:23;95443.19;;;7.11;81.64
8717;BME280;4395;48.554;8.820;2023-11-21T07:56:26;95444.25;;;7.15;81.48
8717;BME280;4395;48.554;8.820;2023-11-21T07:58:29;95441.44;;;7.17;81.28
8717;BME280;4395;48.554;8.820;2023-11-21T08:00:32;95444.56;;;7.19;81.25
8717;BME280;4395;48.554;8.820;2023-11-21T08:02:36;95442.50;;;7.21;81.43
8717;BME280;4395;48.554;8.820;2023-11-21T08:04:39;95439.69;;;7.22;81.37
8717;BME280;4395;48.554;8.820;2023-11-21T08:06:42;95447.47;;;7.22;81.19
8717;BME280;4395;48.554;8.820;2023-11-21T08:08:46;95448.50;;;7.27;81.40
8717;BME280;4395;48.554;8.820;2023-11-21T08:10:49;95447.97;;;7.24;80.92
8717;BME280;4395;48.554;8.820;2023-11-21T08:12:57;95448.75;;;7.25;81.42
8717;BME280;4395;48.554;8.820;2023-11-21T08:15:01;95452.19;;;7.31;81.51
8717;BME280;4395;48.554;8.820;2023-11-21T08:17:04;95447.56;;;7.33;81.53
8717;BME280;4395;48.554;8.820;2023-11-21T08:19:08;95441.16;;;7.40;81.64
8717;BME280;4395;48.554;8.820;2023-11-21T08:21:12;95450.25;;;7.43;81.05
8717;BME280;4395;48.554;8.820;2023-11-21T08:23:15;95452.59;;;7.44;81.36
8717;BME280;4395;48.554;8.820;2023-11-21T08:25:20;95457.56;;;7.51;81.22
8717;BME280;4395;48.554;8.820;2023-11-21T08:27:23;95457.09;;;7.54;81.42
8717;BME280;4395;48.554;8.820;2023-11-21T08:29:26;95457.66;;;7.61;81.28
8717;BME280;4395;48.554;8.820;2023-11-21T08:31:29;95462.38;;;7.64;81.31
8717;BME280;4395;48.554;8.820;2023-11-21T08:33:31;95465.56;;;7.71;81.30
8717;BME280;4395;48.554;8.820;2023-11-21T08:35:34;95462.47;;;7.74;80.84
8717;BME280;4395;48.554;8.820;2023-11-21T08:37:37;95461.97;;;7.77;81.30
8717;BME280;4395;48.554;8.820;2023-11-21T08:39:40;95469.28;;;7.85;81.12
8717;BME280;4395;48.554;8.820;2023-11-21T08:41:45;95460.00;;;7.89;81.25
8717;BME280;4395;48.554;8.820;2023-11-21T08:43:49;95459.53;;;7.92;81.04
8717;BME280;4395;48.554;8.820;2023-11-21T08:45:52;95470.97;;;7.97;80.68
8717;BME280;4395;48.554;8.820;2023-11-21T08:47:55;95472.78;;;7.96;80.36
8717;BME280;4395;48.554;8.820;2023-11-21T08:49:58;95469.97;;;8.03;80.52
8717;BME280;4395;48.554;8.820;2023-11-21T08:52:00;95481.19;;;8.08;80.46
8717;BME280;4395;48.554;8.820;2023-11-21T08:54:03;95479.16;;;8.15;80.21
8717;BME280;4395;48.554;8.820;2023-11-21T08:56:12;95474.03;;;8.25;80.62
8717;BME280;4395;48.554;8.820;2023-11-21T08:58:16;95481.06;;;8.30;79.70
8717;BME280;4395;48.554;8.820;2023-11-21T09:00:19;95482.44;;;8.38;79.95
8717;BME280;4395;48.554;8.820;2023-11-21T09:02:22;95479.13;;;8.42;79.62
8717;BME280;4395;48.554;8.820;2023-11-21T09:04:25;95483.78;;;8.45;79.44
8717;BME280;4395;48.554;8.820;2023-11-21T09:06:28;95484.56;;;8.46;78.89
8717;BME280;4395;48.554;8.820;2023-11-21T09:08:31;95483.28;;;8.48;78.70
8717;BME280;4395;48.554;8.820;2023-11-21T09:10:34;95480.69;;;8.48;79.03
8717;BME280;4395;48.554;8.820;2023-11-21T09:12:38;95487.47;;;8.49;78.40
8717;BME280;4395;48.554;8.820;2023-11-21T09:14:42;95490.06;;;8.49;78.68
8717;BME280;4395;48.554;8.820;2023-11-21T09:16:45;95501.50;;;8.53;78.79
8717;BME280;4395;48.554;8.820;2023-11-21T09:18:48;95494.25;;;8.55;78.73
8717;BME280;4395;48.554;8.820;2023-11-21T09:20:51;95501.78;;;8.57;78.79
8717;BME280;4395;48.554;8.820;2023-11-21T09:22:54;95493.72;;;8.58;78.31
8717;BME280;4395;48.554;8.820;2023-11-21T09:24:58;95503.63;;;8.61;78.50
8717;BME280;4395;48.554;8.820;2023-11-21T09:27:00;95503.13;;;8.64;78.28
8717;BME280;4395;48.554;8.820;2023-11-21T09:29:03;95497.44;;;8.68;78.41
8717;BME280;4395;48.554;8.820;2023-11-21T09:31:08;95503.19;;;8.75;78.51
8717;BME280;4395;48.554;8.820;2023-11-21T09:33:11;95505.31;;;8.83;78.39
8717;BME280;4395;48.554;8.820;2023-11-21T09:35:14;95506.91;;;8.94;77.96
8717;BME280;4395;48.554;8.820;2023-11-21T09:37:17;95505.94;;;9.00;77.94
8717;BME280;4395;48.554;8.820;2023-11-21T09:39:20;95506.47;;;9.07;77.47
8717;BME280;4395;48.554;8.820;2023-11-21T09:41:30;95511.16;;;9.10;77.09
8717;BME280;4395;48.554;8.820;2023-11-21T09:43:36;95522.13;;;9.17;77.33
8717;BME280;4395;48.554;8.820;2023-11-21T09:45:39;95514.84;;;9.19;76.94
8717;BME280;4395;48.554;8.820;2023-11-21T09:47:45;95512.00;;;9.21;76.54
8717;BME280;4395;48.554;8.820;2023-11-21T09:49:47;95513.81;;;9.20;76.25
8717;BME280;4395;48.554;8.820;2023-11-21T09:51:53;95517.44;;;9.14;76.36
8717;BME280;4395;48.554;8.820;2023-11-21T09:53:59;95528.31;;;9.11;76.76
8717;BME280;4395;48.554;8.820;2023-11-21T09:56:03;95522.34;;;9.11;76.96
8717;BME280;4395;48.554;8.820;2023-11-21T09:58:07;95518.47;;;9.13;77.19
8717;BME280;4395;48.554;8.820;2023-11-21T10:00:14;95526.00;;;9.15;77.11
8717;BME280;4395;48.554;8.820;2023-11-21T10:02:20;95522.88;;;9.18;76.94
8717;BME280;4395;48.554;8.820;2023-11-21T10:04:28;95524.19;;;9.20;76.21
8717;BME280;4395;48.554;8.820;2023-11-21T10:06:32;95524.19;;;9.15;76.07
8717;BME280;4395;48.554;8.820;2023-11-21T10:08:36;95523.66;;;9.18;76.48
8717;BME280;4395;48.554;8.820;2023-11-21T10:10:54;95526.78;;;9.15;75.79
8717;BME280;4395;48.554;8.820;2023-11-21T10:13:01;95525.13;;;8.99;75.24
8717;BME280;4395;48.554;8.820;2023-11-21T10:15:08;95523.03;;;8.96;75.28
8717;BME280;4395;48.554;8.820;2023-11-21T10:17:14;95524.63;;;9.02;76.45
8717;BME280;4395;48.554;8.820;2023-11-21T10:19:21;95523.34;;;9.05;75.82
8717;BME280;4395;48.554;8.820;2023-11-21T10:21:25;95525.19;;;9.09;75.81
8717;BME280;4395;48.554;8.820;2023-11-21T10:23:28;95528.31;;;9.11;75.71
8717;BME280;4395;48.554;8.820;2023-11-21T10:25:31;95519.00;;;9.15;76.45
8717;BME280;4395;48.554;8.820;2023-11-21T10:27:34;95525.22;;;9.19;76.64
8717;BME280;4395;48.554;8.820;2023-11-21T10:29:37;95524.66;;;9.07;74.82
8717;BME280;4395;48.554;8.820;2023-11-21T10:31:41;95518.38;;;8.98;75.20
8717;BME280;4395;48.554;8.820;2023-11-21T10:33:45;95522.56;;;9.04;75.34
8717;BME280;4395;48.554;8.820;2023-11-21T10:35:48;95530.91;;;9.11;75.72
8717;BME280;4395;48.554;8.820;2023-11-21T10:38:00;95525.22;;;9.19;75.28
8717;BME280;4395;48.554;8.820;2023-11-21T10:40:06;95528.34;;;9.21;75.63
8717;BME280;4395;48.554;8.820;2023-11-21T10:42:09;95529.44;;;9.30;75.85
8717;BME280;4395;48.554;8.820;2023-11-21T10:44:13;95520.63;;;9.36;75.85
8717;BME280;4395;48.554;8.820;2023-11-21T10:46:22;95533.59;;;9.31;75.82
8717;BME280;4395;48.554;8.820;2023-11-21T10:48:25;95535.91;;;9.23;75.08
8717;BME280;4395;48.554;8.820;2023-11-21T10:50:28;95534.34;;;9.22;75.92
8717;BME280;4395;48.554;8.820;2023-11-21T10:52:30;95529.44;;;9.25;76.26
8717;BME280;4395;48.554;8.820;2023-11-21T10:54:37;95530.50;;;9.29;76.91
8717;BME280;4395;48.554;8.820;2023-11-21T10:56:40;95540.34;;;9.32;76.72
8717;BME280;4395;48.554;8.820;2023-11-21T10:58:45;95536.72;;;9.33;76.74
8717;BME280;4395;48.554;8.820;2023-11-21T11:00:47;95527.13;;;9.34;76.59
8717;BME280;4395;48.554;8.820;2023-11-21T11:02:53;95524.25;;;9.35;76.87
8717;BME280;4395;48.554;8.820;2023-11-21T11:04:57;95524.28;;;9.41;77.16
8717;BME280;4395;48.554;8.820;2023-11-21T11:07:02;95529.50;;;9.41;76.88
8717;BME280;4395;48.554;8.820;2023-11-21T11:09:07;95530.28;;;9.41;77.00
8717;BME280;4395;48.554;8.820;2023-11-21T11:11:12;95533.91;;;9.45;77.19
8717;BME280;4395;48.554;8.820;2023-11-21T11:13:16;95530.03;;;9.48;76.90
8717;BME280;4395;48.554;8.820;2023-11-21T11:15:19;95529.25;;;9.47;76.80
8717;BME280;4395;48.554;8.820;2023-11-21T11:17:22;95537.03;;;9.47;77.11
8717;BME280;4395;48.554;8.820;2023-11-21T11:19:25;95534.69;;;9.46;76.71
8717;BME280;4395;48.554;8.820;2023-11-21T11:21:38;95537.78;;;9.37;76.47